DLH9ED LJLJ-EDDF
Flight info
| Callsign | DLH9ED |
|---|---|
| Flight time | N/A |
| Altitude | 36000 |
| Route | LUPIX2E LUPIX DCT EBITI DCT GIMIX DCT RASTA DCT SIMBA DCT AKINI T161 DEBHI DEBHI1D |
| Aircraft | B738/M-SDE2E3FGHIRWXY/LB1 |
Departure
| Time | 2026-04-27 14:46 |
|---|---|
| Airport | Ljubljana Jože Pučnik Airport (LJLJ) |
Arrival
| Time | N/A |
|---|---|
| Airport | Frankfurt Main Airport (EDDF) |
| Time | Latitude | Longitude | Altitude | Speed | Heading |
|---|---|---|---|---|---|
| 2026-04-27 14:45 | 46.23196 | 14.44148 | 1286 ft | 2 kts | 125° |
| 2026-04-27 14:45 | 46.23184 | 14.44174 | 1283 ft | 5 kts | 125° |
| 2026-04-27 14:45 | 46.23108 | 14.44323 | 1277 ft | 36 kts | 127° |
| 2026-04-27 14:45 | 46.22842 | 14.44843 | 1271 ft | 97 kts | 126° |
| 2026-04-27 14:46 | 46.22314 | 14.45875 | 1249 ft | 155 kts | 126° |
| 2026-04-27 14:46 | 46.21625 | 14.47255 | 1597 ft | 177 kts | 125° |
| 2026-04-27 14:46 | 46.20882 | 14.48740 | 2284 ft | 189 kts | 125° |
| 2026-04-27 14:46 | 46.20092 | 14.50317 | 2993 ft | 194 kts | 125° |
| 2026-04-27 14:47 | 46.19327 | 14.51902 | 3752 ft | 196 kts | 123° |
| 2026-04-27 14:47 | 46.18493 | 14.53654 | 3964 ft | 231 kts | 127° |
| 2026-04-27 14:47 | 46.17452 | 14.55606 | 4221 ft | 258 kts | 129° |
| 2026-04-27 14:47 | 46.16326 | 14.57689 | 4734 ft | 274 kts | 129° |
| 2026-04-27 14:48 | 46.15150 | 14.59896 | 5504 ft | 279 kts | 129° |
| 2026-04-27 14:48 | 46.12793 | 14.64397 | 7161 ft | 285 kts | 128° |
| 2026-04-27 14:48 | 46.11596 | 14.66708 | 7916 ft | 289 kts | 128° |
| 2026-04-27 14:49 | 46.10381 | 14.69059 | 8655 ft | 295 kts | 128° |
| 2026-04-27 14:49 | 46.09146 | 14.71449 | 9412 ft | 300 kts | 128° |
| 2026-04-27 14:49 | 46.07893 | 14.73875 | 10211 ft | 303 kts | 127° |
| 2026-04-27 14:49 | 46.06824 | 14.76574 | 10527 ft | 325 kts | 105° |
| 2026-04-27 14:50 | 46.06714 | 14.79900 | 10703 ft | 346 kts | 77° |
| 2026-04-27 14:50 | 46.07724 | 14.83103 | 10893 ft | 363 kts | 50° |
| 2026-04-27 14:50 | 46.09659 | 14.85438 | 11060 ft | 376 kts | 24° |
| 2026-04-27 14:50 | 46.12193 | 14.86368 | 11471 ft | 380 kts | 359° |
| 2026-04-27 14:51 | 46.14755 | 14.85637 | 12153 ft | 377 kts | 334° |
| 2026-04-27 14:51 | 46.16858 | 14.83430 | 12864 ft | 375 kts | 310° |
| 2026-04-27 14:51 | 46.18124 | 14.80154 | 13558 ft | 378 kts | 286° |
| 2026-04-27 14:51 | 46.18518 | 14.76383 | 14251 ft | 381 kts | 275° |
| 2026-04-27 14:52 | 46.18670 | 14.72545 | 14858 ft | 386 kts | 274° |
| 2026-04-27 14:52 | 46.18946 | 14.68672 | 15463 ft | 389 kts | 280° |
| 2026-04-27 14:52 | 46.19511 | 14.64887 | 16103 ft | 392 kts | 286° |
| 2026-04-27 14:52 | 46.20364 | 14.61132 | 16702 ft | 396 kts | 291° |
| 2026-04-27 14:53 | 46.21430 | 14.57447 | 17334 ft | 400 kts | 295° |
| 2026-04-27 14:53 | 46.22636 | 14.53804 | 18048 ft | 404 kts | 297° |
| 2026-04-27 14:53 | 46.23921 | 14.50179 | 18686 ft | 407 kts | 298° |
| 2026-04-27 14:53 | 46.25244 | 14.46550 | 19272 ft | 410 kts | 298° |
| 2026-04-27 14:54 | 46.26605 | 14.42849 | 19871 ft | 412 kts | 298° |
| 2026-04-27 14:54 | 46.27935 | 14.39227 | 20434 ft | 415 kts | 298° |
| 2026-04-27 14:54 | 46.29286 | 14.35534 | 20970 ft | 418 kts | 298° |
| 2026-04-27 14:54 | 46.30648 | 14.31798 | 21461 ft | 420 kts | 298° |
| 2026-04-27 14:55 | 46.32014 | 14.28034 | 21966 ft | 423 kts | 298° |
| 2026-04-27 14:55 | 46.33380 | 14.24254 | 22435 ft | 426 kts | 298° |
| 2026-04-27 14:55 | 46.34758 | 14.20429 | 22885 ft | 429 kts | 298° |
| 2026-04-27 14:55 | 46.36142 | 14.16579 | 23333 ft | 431 kts | 298° |
| 2026-04-27 14:56 | 46.37533 | 14.12712 | 23770 ft | 434 kts | 298° |
| 2026-04-27 14:56 | 46.38928 | 14.08833 | 24145 ft | 435 kts | 298° |
| 2026-04-27 14:56 | 46.40332 | 14.04925 | 24509 ft | 437 kts | 298° |
| 2026-04-27 14:56 | 46.41720 | 14.01058 | 24871 ft | 439 kts | 298° |
| 2026-04-27 14:57 | 46.43131 | 13.97120 | 25196 ft | 442 kts | 298° |
| 2026-04-27 14:57 | 46.44550 | 13.93152 | 25496 ft | 444 kts | 298° |
| 2026-04-27 14:57 | 46.45973 | 13.89166 | 25898 ft | 444 kts | 298° |
| 2026-04-27 14:57 | 46.47396 | 13.85184 | 26236 ft | 446 kts | 298° |
| 2026-04-27 14:58 | 46.48852 | 13.81177 | 26506 ft | 449 kts | 301° |
| 2026-04-27 14:58 | 46.50669 | 13.77478 | 26728 ft | 452 kts | 311° |
| 2026-04-27 14:58 | 46.52878 | 13.74240 | 27160 ft | 451 kts | 318° |
| 2026-04-27 14:58 | 46.55372 | 13.71486 | 27686 ft | 448 kts | 324° |
| 2026-04-27 14:59 | 46.57918 | 13.68903 | 28230 ft | 445 kts | 324° |
| 2026-04-27 14:59 | 46.60452 | 13.66336 | 28753 ft | 442 kts | 324° |
| 2026-04-27 14:59 | 46.62971 | 13.63772 | 29196 ft | 442 kts | 324° |
| 2026-04-27 14:59 | 46.65448 | 13.61234 | 29643 ft | 441 kts | 324° |
| 2026-04-27 15:00 | 46.67948 | 13.58660 | 30137 ft | 439 kts | 324° |
| 2026-04-27 15:00 | 46.70431 | 13.56092 | 30578 ft | 437 kts | 324° |
| 2026-04-27 15:00 | 46.72905 | 13.53523 | 30940 ft | 436 kts | 324° |
| 2026-04-27 15:00 | 46.75372 | 13.50955 | 31312 ft | 435 kts | 324° |
| 2026-04-27 15:01 | 46.77839 | 13.48385 | 31692 ft | 434 kts | 324° |
| 2026-04-27 15:01 | 46.80299 | 13.45818 | 32064 ft | 434 kts | 324° |
| 2026-04-27 15:01 | 46.82753 | 13.43255 | 32447 ft | 432 kts | 324° |
| 2026-04-27 15:01 | 46.85198 | 13.40699 | 32830 ft | 431 kts | 324° |
| 2026-04-27 15:02 | 46.87638 | 13.38145 | 33133 ft | 430 kts | 324° |
| 2026-04-27 15:02 | 46.90070 | 13.35597 | 33438 ft | 430 kts | 324° |
| 2026-04-27 15:02 | 46.92497 | 13.33050 | 33787 ft | 429 kts | 324° |
| 2026-04-27 15:02 | 46.94914 | 13.30513 | 34099 ft | 428 kts | 324° |
| 2026-04-27 15:03 | 46.97304 | 13.28001 | 34386 ft | 427 kts | 324° |
| 2026-04-27 15:03 | 46.99714 | 13.25466 | 34629 ft | 427 kts | 324° |
| 2026-04-27 15:03 | 47.02127 | 13.22925 | 34882 ft | 427 kts | 324° |
| 2026-04-27 15:03 | 47.04534 | 13.20385 | 35115 ft | 427 kts | 324° |
| 2026-04-27 15:04 | 47.06937 | 13.17847 | 35517 ft | 423 kts | 324° |
| 2026-04-27 15:04 | 47.09327 | 13.15320 | 35819 ft | 422 kts | 323° |
| 2026-04-27 15:04 | 47.11713 | 13.12795 | 36037 ft | 423 kts | 324° |